PWSweather.com
Personal Weather Stations
Station Observations
HESKRFRR38
Schwerin, Germany, Klein RogahnDE 19073

Schwerin, GermanyKlein RogahnDE 19073

Lat: 53.6059537, Lon: 11.3412162

Elevation: 167.3226

Station Type: VantagePro2

wetter.hes61.de

High Low Average
Temperature 73.0°F22.8°C 35.4°F1.9°C 55.5°F13.1°C
Dew Point 44.3°F6.8°C 31.1°F-0.5°C 37.9°F3.3°C
Winds 6.0 mph 9.7 kmh Calm Calm 2.0 mph E3.2 kmh E
Wind Gusts 13.0 mph20.9 kmh -- 6.0 mph9.7 kmh
Humidity 86% 29% 55%
Pressure 30.33 in1027.1 mb 30.06 in1017.9 mb -
Precipitation 0.00 in0.0 mm - -
Hour Temp Dew Point Humidity Winds Wind Gusts Pressure Precip Precip Rate Daily Precip Total
12:00 AM 38.5°F3.6°C 34.4°F1.3°C 85% Calm Calm 2.0 mph3.2 kmh 30.33 in1027.1 mb 0.00 in0.0 mm 0.00 in0.0 mm 0.00 in0.0 mm
12:05 AM 38.4°F3.6°C 34.3°F1.3°C 85% Calm Calm 3.0 mph4.8 kmh 30.32 in1026.8 mb 0.00 in0.0 mm 0.00 in0.0 mm 0.00 in0.0 mm
12:10 AM 38.3°F3.5°C 34.2°F1.2°C 85% 1.0 mph NNE1.6 kmh NNE 3.0 mph4.8 kmh 30.32 in1026.8 mb 0.00 in0.0 mm 0.00 in0.0 mm 0.00 in0.0 mm
12:15 AM 38.1°F3.4°C 34.3°F1.3°C 86% 1.0 mph NNE1.6 kmh NNE 3.0 mph4.8 kmh 30.32 in1026.8 mb 0.00 in0.0 mm 0.00 in0.0 mm 0.00 in0.0 mm
12:20 AM 38.1°F3.4°C 34.3°F1.3°C 86% 1.0 mph NNE1.6 kmh NNE 3.0 mph4.8 kmh 30.32 in1026.8 mb 0.00 in0.0 mm 0.00 in0.0 mm 0.00 in0.0 mm
12:25 AM 38.6°F3.7°C 34.8°F1.6°C 86% 1.0 mph NNE1.6 kmh NNE 3.0 mph4.8 kmh 30.32 in1026.8 mb 0.00 in0.0 mm 0.00 in0.0 mm 0.00 in0.0 mm
12:30 AM 38.5°F3.6°C 34.4°F1.3°C 85% 2.0 mph NNE3.2 kmh NNE 4.0 mph6.4 kmh 30.32 in1026.8 mb 0.00 in0.0 mm 0.00 in0.0 mm 0.00 in0.0 mm
12:35 AM 38.7°F3.7°C 34.6°F1.4°C 85% 2.0 mph NNE3.2 kmh NNE 4.0 mph6.4 kmh 30.32 in1026.8 mb 0.00 in0.0 mm 0.00 in0.0 mm 0.00 in0.0 mm
12:40 AM 38.8°F3.8°C 35.0°F1.7°C 86% 1.0 mph NNE1.6 kmh NNE 4.0 mph6.4 kmh 30.32 in1026.8 mb 0.00 in0.0 mm 0.00 in0.0 mm 0.00 in0.0 mm
12:45 AM 38.6°F3.7°C 34.5°F1.4°C 85% 2.0 mph NNE3.2 kmh NNE 4.0 mph6.4 kmh 30.32 in1026.8 mb 0.00 in0.0 mm 0.00 in0.0 mm 0.00 in0.0 mm
12:50 AM 38.3°F3.5°C 34.2°F1.2°C 85% 2.0 mph NNE3.2 kmh NNE 5.0 mph8.0 kmh 30.32 in1026.8 mb 0.00 in0.0 mm 0.00 in0.0 mm 0.00 in0.0 mm
12:55 AM 38.8°F3.8°C 35.0°F1.7°C 86% 3.0 mph NNE4.8 kmh NNE 5.0 mph8.0 kmh 30.32 in1026.8 mb 0.00 in0.0 mm 0.00 in0.0 mm 0.00 in0.0 mm
01:00 AM 39.4°F4.1°C 35.3°F1.8°C 85% 3.0 mph NNE4.8 kmh NNE 5.0 mph8.0 kmh 30.32 in1026.8 mb 0.00 in0.0 mm 0.00 in0.0 mm 0.00 in0.0 mm
01:05 AM 40.0°F4.4°C 35.3°F1.8°C 83% 3.0 mph NNE4.8 kmh NNE 5.0 mph8.0 kmh 30.32 in1026.8 mb 0.00 in0.0 mm 0.00 in0.0 mm 0.00 in0.0 mm
01:10 AM 40.7°F4.8°C 35.6°F2.0°C 82% 3.0 mph NNE4.8 kmh NNE 5.0 mph8.0 kmh 30.31 in1026.4 mb 0.00 in0.0 mm 0.00 in0.0 mm 0.00 in0.0 mm
01:15 AM 40.8°F4.9°C 35.4°F1.9°C 81% 3.0 mph NNE4.8 kmh NNE 5.0 mph8.0 kmh 30.31 in1026.4 mb 0.00 in0.0 mm 0.00 in0.0 mm 0.00 in0.0 mm
01:20 AM 41.2°F5.1°C 35.5°F1.9°C 80% 1.0 mph NE1.6 kmh NE 4.0 mph6.4 kmh 30.31 in1026.4 mb 0.00 in0.0 mm 0.00 in0.0 mm 0.00 in0.0 mm
01:25 AM 41.6°F5.3°C 35.6°F2.0°C 79% 1.0 mph NE1.6 kmh NE 4.0 mph6.4 kmh 30.31 in1026.4 mb 0.00 in0.0 mm 0.00 in0.0 mm 0.00 in0.0 mm
01:30 AM 41.5°F5.3°C 35.5°F1.9°C 79% 1.0 mph NE1.6 kmh NE 3.0 mph4.8 kmh 30.31 in1026.4 mb 0.00 in0.0 mm 0.00 in0.0 mm 0.00 in0.0 mm
01:35 AM 40.9°F4.9°C 34.9°F1.6°C 79% 1.0 mph NE1.6 kmh NE 4.0 mph6.4 kmh 30.31 in1026.4 mb 0.00 in0.0 mm 0.00 in0.0 mm 0.00 in0.0 mm
01:40 AM 40.7°F4.8°C 35.0°F1.7°C 80% 1.0 mph NE1.6 kmh NE 3.0 mph4.8 kmh 30.31 in1026.4 mb 0.00 in0.0 mm 0.00 in0.0 mm 0.00 in0.0 mm
01:45 AM 40.7°F4.8°C 34.7°F1.5°C 79% 1.0 mph NE1.6 kmh NE 3.0 mph4.8 kmh 30.31 in1026.4 mb 0.00 in0.0 mm 0.00 in0.0 mm 0.00 in0.0 mm
01:50 AM 40.5°F4.7°C 34.5°F1.4°C 79% 1.0 mph NE1.6 kmh NE 4.0 mph6.4 kmh 30.31 in1026.4 mb 0.00 in0.0 mm 0.00 in0.0 mm 0.00 in0.0 mm
01:55 AM 40.5°F4.7°C 34.2°F1.2°C 78% 1.0 mph NE1.6 kmh NE 3.0 mph4.8 kmh 30.30 in1026.1 mb 0.00 in0.0 mm 0.00 in0.0 mm 0.00 in0.0 mm
02:00 AM 40.3°F4.6°C 34.0°F1.1°C 78% 2.0 mph NE3.2 kmh NE 4.0 mph6.4 kmh 30.30 in1026.1 mb 0.00 in0.0 mm 0.00 in0.0 mm 0.00 in0.0 mm
02:05 AM 39.9°F4.4°C 33.9°F1.1°C 79% 2.0 mph NE3.2 kmh NE 4.0 mph6.4 kmh 30.30 in1026.1 mb 0.00 in0.0 mm 0.00 in0.0 mm 0.00 in0.0 mm
02:10 AM 39.9°F4.4°C 33.9°F1.1°C 79% 2.0 mph NE3.2 kmh NE 3.0 mph4.8 kmh 30.30 in1026.1 mb 0.00 in0.0 mm 0.00 in0.0 mm 0.00 in0.0 mm
02:15 AM 39.8°F4.3°C 33.5°F0.8°C 78% 1.0 mph NE1.6 kmh NE 2.0 mph3.2 kmh 30.30 in1026.1 mb 0.00 in0.0 mm 0.00 in0.0 mm 0.00 in0.0 mm
02:20 AM 38.9°F3.8°C 32.6°F0.3°C 78% Calm Calm 2.0 mph3.2 kmh 30.30 in1026.1 mb 0.00 in0.0 mm 0.00 in0.0 mm 0.00 in0.0 mm
02:25 AM 38.5°F3.6°C 32.9°F0.5°C 80% 1.0 mph NE1.6 kmh NE 3.0 mph4.8 kmh 30.30 in1026.1 mb 0.00 in0.0 mm 0.00 in0.0 mm 0.00 in0.0 mm
02:30 AM 38.9°F3.8°C 33.3°F0.7°C 80% Calm Calm 2.0 mph3.2 kmh 30.30 in1026.1 mb 0.00 in0.0 mm 0.00 in0.0 mm 0.00 in0.0 mm
02:35 AM 38.6°F3.7°C 33.0°F0.6°C 80% 1.0 mph NE1.6 kmh NE 3.0 mph4.8 kmh 30.30 in1026.1 mb 0.00 in0.0 mm 0.00 in0.0 mm 0.00 in0.0 mm
02:40 AM 38.5°F3.6°C 33.2°F0.7°C 81% Calm Calm 2.0 mph3.2 kmh 30.30 in1026.1 mb 0.00 in0.0 mm 0.00 in0.0 mm 0.00 in0.0 mm
02:45 AM 38.2°F3.4°C 32.9°F0.5°C 81% 1.0 mph NNE1.6 kmh NNE 4.0 mph6.4 kmh 30.30 in1026.1 mb 0.00 in0.0 mm 0.00 in0.0 mm 0.00 in0.0 mm
02:50 AM 38.3°F3.5°C 33.0°F0.6°C 81% 3.0 mph NNE4.8 kmh NNE 6.0 mph9.7 kmh 30.30 in1026.1 mb 0.00 in0.0 mm 0.00 in0.0 mm 0.00 in0.0 mm
02:55 AM 39.2°F4.0°C 33.6°F0.9°C 80% 4.0 mph NNE6.4 kmh NNE 7.0 mph11.3 kmh 30.30 in1026.1 mb 0.00 in0.0 mm 0.00 in0.0 mm 0.00 in0.0 mm
03:00 AM 38.9°F3.8°C 33.0°F0.6°C 79% 1.0 mph NNE1.6 kmh NNE 5.0 mph8.0 kmh 30.30 in1026.1 mb 0.00 in0.0 mm 0.00 in0.0 mm 0.00 in0.0 mm
03:05 AM 38.8°F3.8°C 32.9°F0.5°C 79% Calm Calm 3.0 mph4.8 kmh 30.30 in1026.1 mb 0.00 in0.0 mm 0.00 in0.0 mm 0.00 in0.0 mm
03:10 AM 38.9°F3.8°C 33.0°F0.6°C 79% Calm Calm 3.0 mph4.8 kmh 30.29 in1025.7 mb 0.00 in0.0 mm 0.00 in0.0 mm 0.00 in0.0 mm
03:15 AM 38.5°F3.6°C 32.9°F0.5°C 80% Calm Calm 2.0 mph3.2 kmh 30.29 in1025.7 mb 0.00 in0.0 mm 0.00 in0.0 mm 0.00 in0.0 mm
03:20 AM 38.2°F3.4°C 32.6°F0.3°C 80% Calm Calm 2.0 mph3.2 kmh 30.29 in1025.7 mb 0.00 in0.0 mm 0.00 in0.0 mm 0.00 in0.0 mm
03:25 AM 38.0°F3.3°C 32.7°F0.4°C 81% Calm Calm 2.0 mph3.2 kmh 30.29 in1025.7 mb 0.00 in0.0 mm 0.00 in0.0 mm 0.00 in0.0 mm
03:30 AM 37.9°F3.3°C 32.6°F0.3°C 81% Calm Calm 3.0 mph4.8 kmh 30.29 in1025.7 mb 0.00 in0.0 mm 0.00 in0.0 mm 0.00 in0.0 mm
03:35 AM 37.4°F3.0°C 32.1°F0.1°C 81% Calm Calm 3.0 mph4.8 kmh 30.29 in1025.7 mb 0.00 in0.0 mm 0.00 in0.0 mm 0.00 in0.0 mm
03:40 AM 36.8°F2.7°C 31.8°F-0.1°C 82% 1.0 mph NE1.6 kmh NE 3.0 mph4.8 kmh 30.29 in1025.7 mb 0.00 in0.0 mm 0.00 in0.0 mm 0.00 in0.0 mm
03:45 AM 36.4°F2.4°C 31.7°F-0.2°C 83% Calm Calm 2.0 mph3.2 kmh 30.29 in1025.7 mb 0.00 in0.0 mm 0.00 in0.0 mm 0.00 in0.0 mm
03:50 AM 36.5°F2.5°C 32.1°F0.1°C 84% Calm Calm 2.0 mph3.2 kmh 30.29 in1025.7 mb 0.00 in0.0 mm 0.00 in0.0 mm 0.00 in0.0 mm
03:55 AM 36.6°F2.6°C 32.2°F0.1°C 84% 1.0 mph NE1.6 kmh NE 3.0 mph4.8 kmh 30.28 in1025.4 mb 0.00 in0.0 mm 0.00 in0.0 mm 0.00 in0.0 mm
04:00 AM 36.9°F2.7°C 32.2°F0.1°C 83% Calm Calm -- 30.28 in1025.4 mb 0.00 in0.0 mm 0.00 in0.0 mm 0.00 in0.0 mm
04:05 AM 36.9°F2.7°C 32.2°F0.1°C 83% Calm Calm 2.0 mph3.2 kmh 30.28 in1025.4 mb 0.00 in0.0 mm 0.00 in0.0 mm 0.00 in0.0 mm
04:10 AM 36.9°F2.7°C 32.2°F0.1°C 83% Calm Calm 2.0 mph3.2 kmh 30.28 in1025.4 mb 0.00 in0.0 mm 0.00 in0.0 mm 0.00 in0.0 mm
04:15 AM 36.8°F2.7°C 31.8°F-0.1°C 82% Calm Calm -- 30.28 in1025.4 mb 0.00 in0.0 mm 0.00 in0.0 mm 0.00 in0.0 mm
04:20 AM 36.0°F2.2°C 31.3°F-0.4°C 83% Calm Calm 2.0 mph3.2 kmh 30.27 in1025.1 mb 0.00 in0.0 mm 0.00 in0.0 mm 0.00 in0.0 mm
04:25 AM 35.4°F1.9°C 31.1°F-0.5°C 84% Calm Calm 1.0 mph1.6 kmh 30.27 in1025.1 mb 0.00 in0.0 mm 0.00 in0.0 mm 0.00 in0.0 mm
04:30 AM 35.5°F1.9°C 31.4°F-0.3°C 85% Calm Calm 3.0 mph4.8 kmh 30.27 in1025.1 mb 0.00 in0.0 mm 0.00 in0.0 mm 0.00 in0.0 mm
04:35 AM 35.4°F1.9°C 31.3°F-0.4°C 85% Calm Calm 2.0 mph3.2 kmh 30.27 in1025.1 mb 0.00 in0.0 mm 0.00 in0.0 mm 0.00 in0.0 mm
04:40 AM 35.4°F1.9°C 31.3°F-0.4°C 85% 1.0 mph NNE1.6 kmh NNE 2.0 mph3.2 kmh 30.27 in1025.1 mb 0.00 in0.0 mm 0.00 in0.0 mm 0.00 in0.0 mm
04:45 AM 35.6°F2.0°C 31.5°F-0.3°C 85% Calm Calm 2.0 mph3.2 kmh 30.27 in1025.1 mb 0.00 in0.0 mm 0.00 in0.0 mm 0.00 in0.0 mm
04:50 AM 35.7°F2.1°C 31.3°F-0.4°C 84% Calm Calm 2.0 mph3.2 kmh 30.27 in1025.1 mb 0.00 in0.0 mm 0.00 in0.0 mm 0.00 in0.0 mm
04:55 AM 36.2°F2.3°C 31.8°F-0.1°C 84% Calm Calm 3.0 mph4.8 kmh 30.27 in1025.1 mb 0.00 in0.0 mm 0.00 in0.0 mm 0.00 in0.0 mm
05:00 AM 36.8°F2.7°C 32.1°F0.1°C 83% Calm Calm 3.0 mph4.8 kmh 30.27 in1025.1 mb 0.00 in0.0 mm 0.00 in0.0 mm 0.00 in0.0 mm
05:05 AM 37.2°F2.9°C 32.2°F0.1°C 82% Calm Calm 2.0 mph3.2 kmh 30.27 in1025.1 mb 0.00 in0.0 mm 0.00 in0.0 mm 0.00 in0.0 mm
05:10 AM 37.3°F2.9°C 32.3°F0.2°C 82% 1.0 mph NE1.6 kmh NE 3.0 mph4.8 kmh 30.27 in1025.1 mb 0.00 in0.0 mm 0.00 in0.0 mm 0.00 in0.0 mm
05:15 AM 37.5°F3.1°C 32.2°F0.1°C 81% Calm Calm 2.0 mph3.2 kmh 30.27 in1025.1 mb 0.00 in0.0 mm 0.00 in0.0 mm 0.00 in0.0 mm
05:20 AM 37.3°F2.9°C 32.0°F0.0°C 81% 1.0 mph NE1.6 kmh NE 3.0 mph4.8 kmh 30.27 in1025.1 mb 0.00 in0.0 mm 0.00 in0.0 mm 0.00 in0.0 mm
05:25 AM 36.8°F2.7°C 31.8°F-0.1°C 82% 1.0 mph NE1.6 kmh NE 3.0 mph4.8 kmh 30.27 in1025.1 mb 0.00 in0.0 mm 0.00 in0.0 mm 0.00 in0.0 mm
05:30 AM 36.1°F2.3°C 31.1°F-0.5°C 82% Calm Calm 2.0 mph3.2 kmh 30.27 in1025.1 mb 0.00 in0.0 mm 0.00 in0.0 mm 0.00 in0.0 mm
05:35 AM 36.6°F2.6°C 32.2°F0.1°C 84% 1.0 mph NE1.6 kmh NE 3.0 mph4.8 kmh 30.27 in1025.1 mb 0.00 in0.0 mm 0.00 in0.0 mm 0.00 in0.0 mm
05:40 AM 37.1°F2.8°C 32.4°F0.2°C 83% Calm Calm 2.0 mph3.2 kmh 30.27 in1025.1 mb 0.00 in0.0 mm 0.00 in0.0 mm 0.00 in0.0 mm
05:45 AM 37.5°F3.1°C 32.8°F0.4°C 83% 1.0 mph NE1.6 kmh NE 3.0 mph4.8 kmh 30.27 in1025.1 mb 0.00 in0.0 mm 0.00 in0.0 mm 0.00 in0.0 mm
05:50 AM 37.9°F3.3°C 32.9°F0.5°C 82% 1.0 mph NE1.6 kmh NE 4.0 mph6.4 kmh 30.27 in1025.1 mb 0.00 in0.0 mm 0.00 in0.0 mm 0.00 in0.0 mm
05:55 AM 38.3°F3.5°C 33.3°F0.7°C 82% Calm Calm 1.0 mph1.6 kmh 30.27 in1025.1 mb 0.00 in0.0 mm 0.00 in0.0 mm 0.00 in0.0 mm
06:00 AM 39.0°F3.9°C 33.7°F0.9°C 81% 1.0 mph NE1.6 kmh NE 3.0 mph4.8 kmh 30.27 in1025.1 mb 0.00 in0.0 mm 0.00 in0.0 mm 0.00 in0.0 mm
06:05 AM 40.5°F4.7°C 34.8°F1.6°C 80% 1.0 mph NE1.6 kmh NE 3.0 mph4.8 kmh 30.26 in1024.7 mb 0.00 in0.0 mm 0.00 in0.0 mm 0.00 in0.0 mm
06:10 AM 41.6°F5.3°C 35.3°F1.8°C 78% Calm Calm 2.0 mph3.2 kmh 30.26 in1024.7 mb 0.00 in0.0 mm 0.00 in0.0 mm 0.00 in0.0 mm
06:15 AM 42.5°F5.8°C 35.5°F1.9°C 76% 1.0 mph NE1.6 kmh NE 2.0 mph3.2 kmh 30.26 in1024.7 mb 0.00 in0.0 mm 0.00 in0.0 mm 0.00 in0.0 mm
06:20 AM 43.5°F6.4°C 36.1°F2.3°C 75% Calm Calm 3.0 mph4.8 kmh 30.26 in1024.7 mb 0.00 in0.0 mm 0.00 in0.0 mm 0.00 in0.0 mm
06:25 AM 44.4°F6.9°C 36.3°F2.4°C 73% 1.0 mph ENE1.6 kmh ENE 3.0 mph4.8 kmh 30.26 in1024.7 mb 0.00 in0.0 mm 0.00 in0.0 mm 0.00 in0.0 mm
06:30 AM 45.4°F7.4°C 36.2°F2.3°C 70% 1.0 mph ENE1.6 kmh ENE 4.0 mph6.4 kmh 30.26 in1024.7 mb 0.00 in0.0 mm 0.00 in0.0 mm 0.00 in0.0 mm
06:35 AM 46.1°F7.8°C 36.1°F2.3°C 68% 1.0 mph ENE1.6 kmh ENE 5.0 mph8.0 kmh 30.26 in1024.7 mb 0.00 in0.0 mm 0.00 in0.0 mm 0.00 in0.0 mm
06:40 AM 46.5°F8.1°C 35.8°F2.1°C 66% 2.0 mph ENE3.2 kmh ENE 5.0 mph8.0 kmh 30.26 in1024.7 mb 0.00 in0.0 mm 0.00 in0.0 mm 0.00 in0.0 mm
06:45 AM 47.2°F8.4°C 36.8°F2.7°C 67% 2.0 mph ENE3.2 kmh ENE 4.0 mph6.4 kmh 30.26 in1024.7 mb 0.00 in0.0 mm 0.00 in0.0 mm 0.00 in0.0 mm
06:50 AM 47.7°F8.7°C 36.1°F2.3°C 64% 2.0 mph E3.2 kmh E 4.0 mph6.4 kmh 30.26 in1024.7 mb 0.00 in0.0 mm 0.00 in0.0 mm 0.00 in0.0 mm
06:55 AM 48.3°F9.1°C 36.7°F2.6°C 64% 2.0 mph ENE3.2 kmh ENE 5.0 mph8.0 kmh 30.26 in1024.7 mb 0.00 in0.0 mm 0.00 in0.0 mm 0.00 in0.0 mm
07:00 AM 48.8°F9.3°C 36.4°F2.4°C 62% 2.0 mph ENE3.2 kmh ENE 5.0 mph8.0 kmh 30.26 in1024.7 mb 0.00 in0.0 mm 0.00 in0.0 mm 0.00 in0.0 mm
07:05 AM 49.3°F9.6°C 36.4°F2.4°C 61% 2.0 mph ENE3.2 kmh ENE 4.0 mph6.4 kmh 30.26 in1024.7 mb 0.00 in0.0 mm 0.00 in0.0 mm 0.00 in0.0 mm
07:10 AM 49.6°F9.8°C 36.7°F2.6°C 61% 3.0 mph ENE4.8 kmh ENE 5.0 mph8.0 kmh 30.26 in1024.7 mb 0.00 in0.0 mm 0.00 in0.0 mm 0.00 in0.0 mm
07:15 AM 50.1°F10.1°C 36.8°F2.7°C 60% 2.0 mph E3.2 kmh E 5.0 mph8.0 kmh 30.26 in1024.7 mb 0.00 in0.0 mm 0.00 in0.0 mm 0.00 in0.0 mm
07:20 AM 50.5°F10.3°C 37.1°F2.8°C 60% 2.0 mph E3.2 kmh E 5.0 mph8.0 kmh 30.25 in1024.4 mb 0.00 in0.0 mm 0.00 in0.0 mm 0.00 in0.0 mm
07:25 AM 50.8°F10.4°C 37.0°F2.8°C 59% 1.0 mph E1.6 kmh E 3.0 mph4.8 kmh 30.26 in1024.7 mb 0.00 in0.0 mm 0.00 in0.0 mm 0.00 in0.0 mm
07:30 AM 51.2°F10.7°C 36.5°F2.5°C 57% 1.0 mph E1.6 kmh E 5.0 mph8.0 kmh 30.25 in1024.4 mb 0.00 in0.0 mm 0.00 in0.0 mm 0.00 in0.0 mm
07:35 AM 51.5°F10.8°C 36.8°F2.7°C 57% 1.0 mph E1.6 kmh E 3.0 mph4.8 kmh 30.25 in1024.4 mb 0.00 in0.0 mm 0.00 in0.0 mm 0.00 in0.0 mm
07:40 AM 52.3°F11.3°C 37.1°F2.8°C 56% 2.0 mph ENE3.2 kmh ENE 5.0 mph8.0 kmh 30.25 in1024.4 mb 0.00 in0.0 mm 0.00 in0.0 mm 0.00 in0.0 mm
07:45 AM 52.3°F11.3°C 36.6°F2.6°C 55% 3.0 mph ENE4.8 kmh ENE 5.0 mph8.0 kmh 30.25 in1024.4 mb 0.00 in0.0 mm 0.00 in0.0 mm 0.00 in0.0 mm
07:50 AM 52.7°F11.5°C 36.5°F2.5°C 54% 2.0 mph E3.2 kmh E 3.0 mph4.8 kmh 30.25 in1024.4 mb 0.00 in0.0 mm 0.00 in0.0 mm 0.00 in0.0 mm
07:55 AM 53.3°F11.8°C 36.6°F2.6°C 53% 1.0 mph E1.6 kmh E 4.0 mph6.4 kmh 30.25 in1024.4 mb 0.00 in0.0 mm 0.00 in0.0 mm 0.00 in0.0 mm
08:00 AM 54.0°F12.2°C 37.3°F2.9°C 53% 1.0 mph E1.6 kmh E 4.0 mph6.4 kmh 30.25 in1024.4 mb 0.00 in0.0 mm 0.00 in0.0 mm 0.00 in0.0 mm
08:05 AM 54.9°F12.7°C 38.1°F3.4°C 53% 1.0 mph E1.6 kmh E 3.0 mph4.8 kmh 30.25 in1024.4 mb 0.00 in0.0 mm 0.00 in0.0 mm 0.00 in0.0 mm
08:10 AM 54.6°F12.6°C 36.3°F2.4°C 50% 1.0 mph E1.6 kmh E 3.0 mph4.8 kmh 30.25 in1024.4 mb 0.00 in0.0 mm 0.00 in0.0 mm 0.00 in0.0 mm
08:15 AM 55.1°F12.8°C 38.3°F3.5°C 53% 1.0 mph E1.6 kmh E 3.0 mph4.8 kmh 30.25 in1024.4 mb 0.00 in0.0 mm 0.00 in0.0 mm 0.00 in0.0 mm
08:20 AM 55.9°F13.3°C 39.0°F3.9°C 53% 1.0 mph E1.6 kmh E 3.0 mph4.8 kmh 30.24 in1024.0 mb 0.00 in0.0 mm 0.00 in0.0 mm 0.00 in0.0 mm
08:25 AM 57.0°F13.9°C 39.1°F3.9°C 51% 1.0 mph E1.6 kmh E 3.0 mph4.8 kmh 30.24 in1024.0 mb 0.00 in0.0 mm 0.00 in0.0 mm 0.00 in0.0 mm
08:30 AM 57.0°F13.9°C 38.5°F3.6°C 50% 1.0 mph E1.6 kmh E 5.0 mph8.0 kmh 30.24 in1024.0 mb 0.00 in0.0 mm 0.00 in0.0 mm 0.00 in0.0 mm
08:35 AM 57.3°F14.1°C 38.8°F3.8°C 50% 1.0 mph E1.6 kmh E 3.0 mph4.8 kmh 30.24 in1024.0 mb 0.00 in0.0 mm 0.00 in0.0 mm 0.00 in0.0 mm
08:40 AM 58.0°F14.4°C 38.9°F3.8°C 49% 1.0 mph SE1.6 kmh SE 4.0 mph6.4 kmh 30.24 in1024.0 mb 0.00 in0.0 mm 0.00 in0.0 mm 0.00 in0.0 mm
08:45 AM 58.5°F14.7°C 38.9°F3.8°C 48% 1.0 mph SE1.6 kmh SE 3.0 mph4.8 kmh 30.24 in1024.0 mb 0.00 in0.0 mm 0.00 in0.0 mm 0.00 in0.0 mm
08:50 AM 58.8°F14.9°C 39.7°F4.3°C 49% 1.0 mph SE1.6 kmh SE 4.0 mph6.4 kmh 30.24 in1024.0 mb 0.00 in0.0 mm 0.00 in0.0 mm 0.00 in0.0 mm
08:55 AM 58.6°F14.8°C 39.0°F3.9°C 48% 1.0 mph ESE1.6 kmh ESE 5.0 mph8.0 kmh 30.24 in1024.0 mb 0.00 in0.0 mm 0.00 in0.0 mm 0.00 in0.0 mm
09:00 AM 59.5°F15.3°C 39.3°F4.1°C 47% 1.0 mph ESE1.6 kmh ESE 4.0 mph6.4 kmh 30.24 in1024.0 mb 0.00 in0.0 mm 0.00 in0.0 mm 0.00 in0.0 mm
09:05 AM 60.1°F15.6°C 39.8°F4.3°C 47% 1.0 mph ESE1.6 kmh ESE 3.0 mph4.8 kmh 30.24 in1024.0 mb 0.00 in0.0 mm 0.00 in0.0 mm 0.00 in0.0 mm
09:10 AM 59.9°F15.5°C 40.2°F4.6°C 48% 2.0 mph ESE3.2 kmh ESE 6.0 mph9.7 kmh 30.24 in1024.0 mb 0.00 in0.0 mm 0.00 in0.0 mm 0.00 in0.0 mm
09:15 AM 60.4°F15.8°C 39.5°F4.2°C 46% 2.0 mph E3.2 kmh E 4.0 mph6.4 kmh 30.24 in1024.0 mb 0.00 in0.0 mm 0.00 in0.0 mm 0.00 in0.0 mm
09:20 AM 60.9°F16.1°C 40.5°F4.7°C 47% 2.0 mph E3.2 kmh E 5.0 mph8.0 kmh 30.23 in1023.7 mb 0.00 in0.0 mm 0.00 in0.0 mm 0.00 in0.0 mm
09:25 AM 60.6°F15.9°C 39.7°F4.3°C 46% 2.0 mph E3.2 kmh E 4.0 mph6.4 kmh 30.23 in1023.7 mb 0.00 in0.0 mm 0.00 in0.0 mm 0.00 in0.0 mm
09:30 AM 60.5°F15.8°C 38.5°F3.6°C 44% 3.0 mph E4.8 kmh E 7.0 mph11.3 kmh 30.23 in1023.7 mb 0.00 in0.0 mm 0.00 in0.0 mm 0.00 in0.0 mm
09:35 AM 61.5°F16.4°C 41.6°F5.3°C 48% 2.0 mph E3.2 kmh E 5.0 mph8.0 kmh 30.23 in1023.7 mb 0.00 in0.0 mm 0.00 in0.0 mm 0.00 in0.0 mm
09:40 AM 61.4°F16.3°C 39.9°F4.4°C 45% 2.0 mph ENE3.2 kmh ENE 6.0 mph9.7 kmh 30.23 in1023.7 mb 0.00 in0.0 mm 0.00 in0.0 mm 0.00 in0.0 mm
09:45 AM 61.4°F16.3°C 39.9°F4.4°C 45% 2.0 mph E3.2 kmh E 5.0 mph8.0 kmh 30.23 in1023.7 mb 0.00 in0.0 mm 0.00 in0.0 mm 0.00 in0.0 mm
09:50 AM 62.1°F16.7°C 39.3°F4.1°C 43% 3.0 mph E4.8 kmh E 7.0 mph11.3 kmh 30.23 in1023.7 mb 0.00 in0.0 mm 0.00 in0.0 mm 0.00 in0.0 mm
09:55 AM 61.9°F16.6°C 39.2°F4.0°C 43% 2.0 mph E3.2 kmh E 7.0 mph11.3 kmh 30.23 in1023.7 mb 0.00 in0.0 mm 0.00 in0.0 mm 0.00 in0.0 mm
10:00 AM 62.6°F17.0°C 40.4°F4.7°C 44% 2.0 mph E3.2 kmh E 6.0 mph9.7 kmh 30.22 in1023.4 mb 0.00 in0.0 mm 0.00 in0.0 mm 0.00 in0.0 mm
10:05 AM 62.6°F17.0°C 40.4°F4.7°C 44% 1.0 mph ENE1.6 kmh ENE 4.0 mph6.4 kmh 30.22 in1023.4 mb 0.00 in0.0 mm 0.00 in0.0 mm 0.00 in0.0 mm
10:10 AM 63.2°F17.3°C 39.7°F4.3°C 42% 3.0 mph ENE4.8 kmh ENE 6.0 mph9.7 kmh 30.22 in1023.4 mb 0.00 in0.0 mm 0.00 in0.0 mm 0.00 in0.0 mm
10:15 AM 63.0°F17.2°C 39.5°F4.2°C 42% 3.0 mph E4.8 kmh E 6.0 mph9.7 kmh 30.22 in1023.4 mb 0.00 in0.0 mm 0.00 in0.0 mm 0.00 in0.0 mm
10:20 AM 63.4°F17.4°C 39.9°F4.4°C 42% 2.0 mph E3.2 kmh E 5.0 mph8.0 kmh 30.22 in1023.4 mb 0.00 in0.0 mm 0.00 in0.0 mm 0.00 in0.0 mm
10:25 AM 64.5°F18.1°C 39.6°F4.2°C 40% 1.0 mph E1.6 kmh E 6.0 mph9.7 kmh 30.22 in1023.4 mb 0.00 in0.0 mm 0.00 in0.0 mm 0.00 in0.0 mm
10:30 AM 64.6°F18.1°C 39.1°F3.9°C 39% 2.0 mph ENE3.2 kmh ENE 6.0 mph9.7 kmh 30.22 in1023.4 mb 0.00 in0.0 mm 0.00 in0.0 mm 0.00 in0.0 mm
10:35 AM 64.1°F17.8°C 39.3°F4.1°C 40% 3.0 mph ENE4.8 kmh ENE 7.0 mph11.3 kmh 30.21 in1023.0 mb 0.00 in0.0 mm 0.00 in0.0 mm 0.00 in0.0 mm
10:40 AM 64.9°F18.3°C 38.7°F3.7°C 38% 2.0 mph E3.2 kmh E 6.0 mph9.7 kmh 30.21 in1023.0 mb 0.00 in0.0 mm 0.00 in0.0 mm 0.00 in0.0 mm
10:45 AM 64.6°F18.1°C 39.1°F3.9°C 39% 3.0 mph ESE4.8 kmh ESE 8.0 mph12.9 kmh 30.21 in1023.0 mb 0.00 in0.0 mm 0.00 in0.0 mm 0.00 in0.0 mm
10:50 AM 65.4°F18.6°C 39.8°F4.3°C 39% 4.0 mph ENE6.4 kmh ENE 9.0 mph14.5 kmh 30.21 in1023.0 mb 0.00 in0.0 mm 0.00 in0.0 mm 0.00 in0.0 mm
10:55 AM 64.4°F18.0°C 38.2°F3.4°C 38% 3.0 mph ENE4.8 kmh ENE 8.0 mph12.9 kmh 30.21 in1023.0 mb 0.00 in0.0 mm 0.00 in0.0 mm 0.00 in0.0 mm
11:00 AM 65.4°F18.6°C 38.4°F3.6°C 37% 2.0 mph ENE3.2 kmh ENE 7.0 mph11.3 kmh 30.20 in1022.7 mb 0.00 in0.0 mm 0.00 in0.0 mm 0.00 in0.0 mm
11:05 AM 66.3°F19.1°C 41.2°F5.1°C 40% 1.0 mph ENE1.6 kmh ENE 6.0 mph9.7 kmh 30.20 in1022.7 mb 0.00 in0.0 mm 0.00 in0.0 mm 0.00 in0.0 mm
11:10 AM 67.0°F19.4°C 41.2°F5.1°C 39% 1.0 mph E1.6 kmh E 5.0 mph8.0 kmh 30.20 in1022.7 mb 0.00 in0.0 mm 0.00 in0.0 mm 0.00 in0.0 mm
11:15 AM 66.5°F19.2°C 39.4°F4.1°C 37% 4.0 mph ENE6.4 kmh ENE 10.0 mph16.1 kmh 30.20 in1022.7 mb 0.00 in0.0 mm 0.00 in0.0 mm 0.00 in0.0 mm
11:20 AM 66.2°F19.0°C 38.5°F3.6°C 36% 5.0 mph ENE8.0 kmh ENE 12.0 mph19.3 kmh 30.20 in1022.7 mb 0.00 in0.0 mm 0.00 in0.0 mm 0.00 in0.0 mm
11:25 AM 66.1°F18.9°C 39.1°F3.9°C 37% 1.0 mph E1.6 kmh E 4.0 mph6.4 kmh 30.19 in1022.4 mb 0.00 in0.0 mm 0.00 in0.0 mm 0.00 in0.0 mm
11:30 AM 66.3°F19.1°C 38.5°F3.6°C 36% 2.0 mph ESE3.2 kmh ESE 9.0 mph14.5 kmh 30.19 in1022.4 mb 0.00 in0.0 mm 0.00 in0.0 mm 0.00 in0.0 mm
11:35 AM 66.7°F19.3°C 40.3°F4.6°C 38% 3.0 mph ESE4.8 kmh ESE 9.0 mph14.5 kmh 30.19 in1022.4 mb 0.00 in0.0 mm 0.00 in0.0 mm 0.00 in0.0 mm
11:40 AM 67.8°F19.9°C 39.9°F4.4°C 36% 5.0 mph ENE8.0 kmh ENE 11.0 mph17.7 kmh 30.18 in1022.0 mb 0.00 in0.0 mm 0.00 in0.0 mm 0.00 in0.0 mm
11:45 AM 67.1°F19.5°C 37.8°F3.2°C 34% 3.0 mph SSE4.8 kmh SSE 9.0 mph14.5 kmh 30.18 in1022.0 mb 0.00 in0.0 mm 0.00 in0.0 mm 0.00 in0.0 mm
11:50 AM 67.1°F19.5°C 38.5°F3.6°C 35% 2.0 mph SE3.2 kmh SE 9.0 mph14.5 kmh 30.18 in1022.0 mb 0.00 in0.0 mm 0.00 in0.0 mm 0.00 in0.0 mm
11:55 AM 67.3°F19.6°C 39.4°F4.1°C 36% 6.0 mph ENE9.7 kmh ENE 11.0 mph17.7 kmh 30.18 in1022.0 mb 0.00 in0.0 mm 0.00 in0.0 mm 0.00 in0.0 mm
12:00 PM 66.9°F19.4°C 39.1°F3.9°C 36% 4.0 mph E6.4 kmh E 9.0 mph14.5 kmh 30.18 in1022.0 mb 0.00 in0.0 mm 0.00 in0.0 mm 0.00 in0.0 mm
12:05 PM 67.0°F19.4°C 38.4°F3.6°C 35% 2.0 mph E3.2 kmh E 8.0 mph12.9 kmh 30.18 in1022.0 mb 0.00 in0.0 mm 0.00 in0.0 mm 0.00 in0.0 mm
12:10 PM 67.1°F19.5°C 40.6°F4.8°C 38% 1.0 mph NNE1.6 kmh NNE 5.0 mph8.0 kmh 30.18 in1022.0 mb 0.00 in0.0 mm 0.00 in0.0 mm 0.00 in0.0 mm
12:15 PM 68.1°F20.1°C 37.9°F3.3°C 33% 4.0 mph E6.4 kmh E 12.0 mph19.3 kmh 30.17 in1021.7 mb 0.00 in0.0 mm 0.00 in0.0 mm 0.00 in0.0 mm
12:20 PM 68.8°F20.4°C 38.5°F3.6°C 33% 6.0 mph NE9.7 kmh NE 13.0 mph20.9 kmh 30.17 in1021.7 mb 0.00 in0.0 mm 0.00 in0.0 mm 0.00 in0.0 mm
12:25 PM 69.0°F20.6°C 39.5°F4.2°C 34% 1.0 mph S1.6 kmh S 5.0 mph8.0 kmh 30.17 in1021.7 mb 0.00 in0.0 mm 0.00 in0.0 mm 0.00 in0.0 mm
12:30 PM 69.0°F20.6°C 38.7°F3.7°C 33% 1.0 mph SSW1.6 kmh SSW 4.0 mph6.4 kmh 30.17 in1021.7 mb 0.00 in0.0 mm 0.00 in0.0 mm 0.00 in0.0 mm
12:35 PM 69.0°F20.6°C 41.6°F5.3°C 37% 1.0 mph SW1.6 kmh SW 4.0 mph6.4 kmh 30.17 in1021.7 mb 0.00 in0.0 mm 0.00 in0.0 mm 0.00 in0.0 mm
12:40 PM 68.9°F20.5°C 39.4°F4.1°C 34% 1.0 mph SSW1.6 kmh SSW 5.0 mph8.0 kmh 30.16 in1021.3 mb 0.00 in0.0 mm 0.00 in0.0 mm 0.00 in0.0 mm
12:45 PM 69.8°F21.0°C 37.8°F3.2°C 31% 3.0 mph E4.8 kmh E 9.0 mph14.5 kmh 30.16 in1021.3 mb 0.00 in0.0 mm 0.00 in0.0 mm 0.00 in0.0 mm
12:50 PM 69.3°F20.7°C 39.0°F3.9°C 33% 2.0 mph ESE3.2 kmh ESE 7.0 mph11.3 kmh 30.16 in1021.3 mb 0.00 in0.0 mm 0.00 in0.0 mm 0.00 in0.0 mm
12:55 PM 69.5°F20.8°C 37.5°F3.1°C 31% 1.0 mph ENE1.6 kmh ENE 5.0 mph8.0 kmh 30.16 in1021.3 mb 0.00 in0.0 mm 0.00 in0.0 mm 0.00 in0.0 mm
01:00 PM 70.5°F21.4°C 39.2°F4.0°C 32% Calm Calm 1.0 mph1.6 kmh 30.16 in1021.3 mb 0.00 in0.0 mm 0.00 in0.0 mm 0.00 in0.0 mm
01:05 PM 71.7°F22.1°C 42.6°F5.9°C 35% Calm Calm 2.0 mph3.2 kmh 30.16 in1021.3 mb 0.00 in0.0 mm 0.00 in0.0 mm 0.00 in0.0 mm
01:10 PM 73.0°F22.8°C 38.9°F3.8°C 29% 1.0 mph W1.6 kmh W 3.0 mph4.8 kmh 30.16 in1021.3 mb 0.00 in0.0 mm 0.00 in0.0 mm 0.00 in0.0 mm
01:15 PM 70.6°F21.4°C 39.3°F4.1°C 32% 2.0 mph ENE3.2 kmh ENE 7.0 mph11.3 kmh 30.15 in1021.0 mb 0.00 in0.0 mm 0.00 in0.0 mm 0.00 in0.0 mm
01:20 PM 69.4°F20.8°C 38.3°F3.5°C 32% 2.0 mph ENE3.2 kmh ENE 7.0 mph11.3 kmh 30.15 in1021.0 mb 0.00 in0.0 mm 0.00 in0.0 mm 0.00 in0.0 mm
01:25 PM 69.6°F20.9°C 36.8°F2.7°C 30% 2.0 mph SE3.2 kmh SE 6.0 mph9.7 kmh 30.15 in1021.0 mb 0.00 in0.0 mm 0.00 in0.0 mm 0.00 in0.0 mm
01:30 PM 71.1°F21.7°C 44.2°F6.8°C 38% Calm Calm 3.0 mph4.8 kmh 30.15 in1021.0 mb 0.00 in0.0 mm 0.00 in0.0 mm 0.00 in0.0 mm
01:35 PM 71.9°F22.2°C 44.2°F6.8°C 37% Calm Calm 1.0 mph1.6 kmh 30.14 in1020.7 mb 0.00 in0.0 mm 0.00 in0.0 mm 0.00 in0.0 mm
01:40 PM 70.2°F21.2°C 36.4°F2.4°C 29% Calm Calm 1.0 mph1.6 kmh 30.14 in1020.7 mb 0.00 in0.0 mm 0.00 in0.0 mm 0.00 in0.0 mm
01:45 PM 70.8°F21.6°C 37.8°F3.2°C 30% Calm Calm 2.0 mph3.2 kmh 30.14 in1020.7 mb 0.00 in0.0 mm 0.00 in0.0 mm 0.00 in0.0 mm
01:50 PM 69.6°F20.9°C 39.2°F4.0°C 33% 1.0 mph SE1.6 kmh SE 3.0 mph4.8 kmh 30.14 in1020.7 mb 0.00 in0.0 mm 0.00 in0.0 mm 0.00 in0.0 mm
01:55 PM 69.2°F20.7°C 38.9°F3.8°C 33% 1.0 mph ESE1.6 kmh ESE 8.0 mph12.9 kmh 30.14 in1020.7 mb 0.00 in0.0 mm 0.00 in0.0 mm 0.00 in0.0 mm
02:00 PM 69.6°F20.9°C 37.6°F3.1°C 31% 1.0 mph ENE1.6 kmh ENE 4.0 mph6.4 kmh 30.14 in1020.7 mb 0.00 in0.0 mm 0.00 in0.0 mm 0.00 in0.0 mm
02:05 PM 71.5°F21.9°C 39.3°F4.1°C 31% 1.0 mph WNW1.6 kmh WNW 4.0 mph6.4 kmh 30.13 in1020.3 mb 0.00 in0.0 mm 0.00 in0.0 mm 0.00 in0.0 mm
02:10 PM 70.6°F21.4°C 38.5°F3.6°C 31% 2.0 mph SE3.2 kmh SE 6.0 mph9.7 kmh 30.13 in1020.3 mb 0.00 in0.0 mm 0.00 in0.0 mm 0.00 in0.0 mm
02:15 PM 69.7°F20.9°C 39.3°F4.1°C 33% 2.0 mph E3.2 kmh E 5.0 mph8.0 kmh 30.13 in1020.3 mb 0.00 in0.0 mm 0.00 in0.0 mm 0.00 in0.0 mm
02:20 PM 70.0°F21.1°C 38.0°F3.3°C 31% 1.0 mph NNE1.6 kmh NNE 4.0 mph6.4 kmh 30.12 in1020.0 mb 0.00 in0.0 mm 0.00 in0.0 mm 0.00 in0.0 mm
02:25 PM 72.4°F22.4°C 41.7°F5.4°C 33% 1.0 mph W1.6 kmh W 5.0 mph8.0 kmh 30.12 in1020.0 mb 0.00 in0.0 mm 0.00 in0.0 mm 0.00 in0.0 mm
02:30 PM 72.1°F22.3°C 43.7°F6.5°C 36% 2.0 mph SW3.2 kmh SW 4.0 mph6.4 kmh 30.12 in1020.0 mb 0.00 in0.0 mm 0.00 in0.0 mm 0.00 in0.0 mm
02:35 PM 71.9°F22.2°C 42.8°F6.0°C 35% 3.0 mph NW4.8 kmh NW 6.0 mph9.7 kmh 30.12 in1020.0 mb 0.00 in0.0 mm 0.00 in0.0 mm 0.00 in0.0 mm
02:40 PM 70.8°F21.6°C 37.8°F3.2°C 30% 1.0 mph NNE1.6 kmh NNE 8.0 mph12.9 kmh 30.12 in1020.0 mb 0.00 in0.0 mm 0.00 in0.0 mm 0.00 in0.0 mm
02:45 PM 70.6°F21.4°C 36.8°F2.7°C 29% 3.0 mph NE4.8 kmh NE 9.0 mph14.5 kmh 30.12 in1020.0 mb 0.00 in0.0 mm 0.00 in0.0 mm 0.00 in0.0 mm
02:50 PM 70.0°F21.1°C 38.8°F3.8°C 32% 2.0 mph ENE3.2 kmh ENE 9.0 mph14.5 kmh 30.11 in1019.6 mb 0.00 in0.0 mm 0.00 in0.0 mm 0.00 in0.0 mm
02:55 PM 70.6°F21.4°C 36.8°F2.7°C 29% 2.0 mph NNW3.2 kmh NNW 6.0 mph9.7 kmh 30.11 in1019.6 mb 0.00 in0.0 mm 0.00 in0.0 mm 0.00 in0.0 mm
03:00 PM 71.2°F21.8°C 38.2°F3.4°C 30% 4.0 mph E6.4 kmh E 8.0 mph12.9 kmh 30.11 in1019.6 mb 0.00 in0.0 mm 0.00 in0.0 mm 0.00 in0.0 mm
03:05 PM 69.9°F21.1°C 37.0°F2.8°C 30% 4.0 mph ENE6.4 kmh ENE 9.0 mph14.5 kmh 30.11 in1019.6 mb 0.00 in0.0 mm 0.00 in0.0 mm 0.00 in0.0 mm
03:10 PM 69.9°F21.1°C 40.2°F4.6°C 34% Calm Calm 3.0 mph4.8 kmh 30.11 in1019.6 mb 0.00 in0.0 mm 0.00 in0.0 mm 0.00 in0.0 mm
03:15 PM 70.2°F21.2°C 39.0°F3.9°C 32% 1.0 mph ENE1.6 kmh ENE 5.0 mph8.0 kmh 30.11 in1019.6 mb 0.00 in0.0 mm 0.00 in0.0 mm 0.00 in0.0 mm
03:20 PM 69.9°F21.1°C 37.9°F3.3°C 31% 2.0 mph E3.2 kmh E 8.0 mph12.9 kmh 30.10 in1019.3 mb 0.00 in0.0 mm 0.00 in0.0 mm 0.00 in0.0 mm
03:25 PM 70.2°F21.2°C 39.0°F3.9°C 32% 3.0 mph E4.8 kmh E 8.0 mph12.9 kmh 30.10 in1019.3 mb 0.00 in0.0 mm 0.00 in0.0 mm 0.00 in0.0 mm
03:30 PM 69.9°F21.1°C 37.9°F3.3°C 31% 3.0 mph E4.8 kmh E 7.0 mph11.3 kmh 30.10 in1019.3 mb 0.00 in0.0 mm 0.00 in0.0 mm 0.00 in0.0 mm
03:35 PM 69.9°F21.1°C 36.2°F2.3°C 29% 4.0 mph ENE6.4 kmh ENE 10.0 mph16.1 kmh 30.10 in1019.3 mb 0.00 in0.0 mm 0.00 in0.0 mm 0.00 in0.0 mm
03:40 PM 70.1°F21.2°C 36.4°F2.4°C 29% 3.0 mph ESE4.8 kmh ESE 6.0 mph9.7 kmh 30.10 in1019.3 mb 0.00 in0.0 mm 0.00 in0.0 mm 0.00 in0.0 mm
03:45 PM 70.3°F21.3°C 38.2°F3.4°C 31% 2.0 mph ENE3.2 kmh ENE 7.0 mph11.3 kmh 30.09 in1019.0 mb 0.00 in0.0 mm 0.00 in0.0 mm 0.00 in0.0 mm
03:50 PM 69.8°F21.0°C 37.0°F2.8°C 30% 3.0 mph ENE4.8 kmh ENE 9.0 mph14.5 kmh 30.09 in1019.0 mb 0.00 in0.0 mm 0.00 in0.0 mm 0.00 in0.0 mm
03:55 PM 69.7°F20.9°C 36.9°F2.7°C 30% 5.0 mph ENE8.0 kmh ENE 10.0 mph16.1 kmh 30.09 in1019.0 mb 0.00 in0.0 mm 0.00 in0.0 mm 0.00 in0.0 mm
04:00 PM 69.5°F20.8°C 39.1°F3.9°C 33% 6.0 mph ENE9.7 kmh ENE 10.0 mph16.1 kmh 30.09 in1019.0 mb 0.00 in0.0 mm 0.00 in0.0 mm 0.00 in0.0 mm
04:05 PM 69.8°F21.0°C 37.0°F2.8°C 30% 4.0 mph E6.4 kmh E 9.0 mph14.5 kmh 30.09 in1019.0 mb 0.00 in0.0 mm 0.00 in0.0 mm 0.00 in0.0 mm
04:10 PM 69.8°F21.0°C 37.0°F2.8°C 30% 5.0 mph ENE8.0 kmh ENE 10.0 mph16.1 kmh 30.09 in1019.0 mb 0.00 in0.0 mm 0.00 in0.0 mm 0.00 in0.0 mm
04:15 PM 69.5°F20.8°C 37.5°F3.1°C 31% 4.0 mph ENE6.4 kmh ENE 9.0 mph14.5 kmh 30.09 in1019.0 mb 0.00 in0.0 mm 0.00 in0.0 mm 0.00 in0.0 mm
04:20 PM 69.2°F20.7°C 38.1°F3.4°C 32% 3.0 mph ENE4.8 kmh ENE 8.0 mph12.9 kmh 30.09 in1019.0 mb 0.00 in0.0 mm 0.00 in0.0 mm 0.00 in0.0 mm
04:25 PM 69.4°F20.8°C 37.4°F3.0°C 31% 4.0 mph ENE6.4 kmh ENE 8.0 mph12.9 kmh 30.09 in1019.0 mb 0.00 in0.0 mm 0.00 in0.0 mm 0.00 in0.0 mm
04:30 PM 69.7°F20.9°C 39.3°F4.1°C 33% 2.0 mph ENE3.2 kmh ENE 7.0 mph11.3 kmh 30.08 in1018.6 mb 0.00 in0.0 mm 0.00 in0.0 mm 0.00 in0.0 mm
04:35 PM 69.4°F20.8°C 37.4°F3.0°C 31% 5.0 mph ENE8.0 kmh ENE 8.0 mph12.9 kmh 30.08 in1018.6 mb 0.00 in0.0 mm 0.00 in0.0 mm 0.00 in0.0 mm
04:40 PM 69.4°F20.8°C 39.0°F3.9°C 33% 4.0 mph ENE6.4 kmh ENE 10.0 mph16.1 kmh 30.08 in1018.6 mb 0.00 in0.0 mm 0.00 in0.0 mm 0.00 in0.0 mm
04:45 PM 69.0°F20.6°C 38.7°F3.7°C 33% 5.0 mph ENE8.0 kmh ENE 10.0 mph16.1 kmh 30.08 in1018.6 mb 0.00 in0.0 mm 0.00 in0.0 mm 0.00 in0.0 mm
04:50 PM 68.8°F20.4°C 39.3°F4.1°C 34% 2.0 mph ENE3.2 kmh ENE 7.0 mph11.3 kmh 30.08 in1018.6 mb 0.00 in0.0 mm 0.00 in0.0 mm 0.00 in0.0 mm
04:55 PM 68.7°F20.4°C 39.2°F4.0°C 34% 6.0 mph ENE9.7 kmh ENE 10.0 mph16.1 kmh 30.08 in1018.6 mb 0.00 in0.0 mm 0.00 in0.0 mm 0.00 in0.0 mm
05:00 PM 68.8°F20.4°C 37.7°F3.2°C 32% 4.0 mph E6.4 kmh E 8.0 mph12.9 kmh 30.08 in1018.6 mb 0.00 in0.0 mm 0.00 in0.0 mm 0.00 in0.0 mm
05:05 PM 68.7°F20.4°C 38.4°F3.6°C 33% 5.0 mph ENE8.0 kmh ENE 10.0 mph16.1 kmh 30.07 in1018.3 mb 0.00 in0.0 mm 0.00 in0.0 mm 0.00 in0.0 mm
05:10 PM 68.7°F20.4°C 38.4°F3.6°C 33% 3.0 mph E4.8 kmh E 6.0 mph9.7 kmh 30.07 in1018.3 mb 0.00 in0.0 mm 0.00 in0.0 mm 0.00 in0.0 mm
05:15 PM 68.5°F20.3°C 38.3°F3.5°C 33% 4.0 mph ENE6.4 kmh ENE 9.0 mph14.5 kmh 30.07 in1018.3 mb 0.00 in0.0 mm 0.00 in0.0 mm 0.00 in0.0 mm
05:20 PM 68.1°F20.1°C 37.9°F3.3°C 33% 5.0 mph ENE8.0 kmh ENE 9.0 mph14.5 kmh 30.07 in1018.3 mb 0.00 in0.0 mm 0.00 in0.0 mm 0.00 in0.0 mm
05:25 PM 67.9°F19.9°C 38.5°F3.6°C 34% 4.0 mph ENE6.4 kmh ENE 11.0 mph17.7 kmh 30.07 in1018.3 mb 0.00 in0.0 mm 0.00 in0.0 mm 0.00 in0.0 mm
05:30 PM 67.8°F19.9°C 40.6°F4.8°C 37% 4.0 mph ENE6.4 kmh ENE 9.0 mph14.5 kmh 30.07 in1018.3 mb 0.00 in0.0 mm 0.00 in0.0 mm 0.00 in0.0 mm
05:35 PM 67.4°F19.7°C 42.2°F5.7°C 40% 3.0 mph NE4.8 kmh NE 8.0 mph12.9 kmh 30.07 in1018.3 mb 0.00 in0.0 mm 0.00 in0.0 mm 0.00 in0.0 mm
05:40 PM 67.3°F19.6°C 41.5°F5.3°C 39% 4.0 mph NE6.4 kmh NE 12.0 mph19.3 kmh 30.07 in1018.3 mb 0.00 in0.0 mm 0.00 in0.0 mm 0.00 in0.0 mm
05:45 PM 67.1°F19.5°C 40.6°F4.8°C 38% 6.0 mph NE9.7 kmh NE 13.0 mph20.9 kmh 30.07 in1018.3 mb 0.00 in0.0 mm 0.00 in0.0 mm 0.00 in0.0 mm
05:50 PM 66.9°F19.4°C 41.8°F5.4°C 40% 4.0 mph NE6.4 kmh NE 11.0 mph17.7 kmh 30.06 in1017.9 mb 0.00 in0.0 mm 0.00 in0.0 mm 0.00 in0.0 mm
05:55 PM 66.6°F19.2°C 42.2°F5.7°C 41% 3.0 mph NE4.8 kmh NE 9.0 mph14.5 kmh 30.06 in1017.9 mb 0.00 in0.0 mm 0.00 in0.0 mm 0.00 in0.0 mm
06:00 PM 66.2°F19.0°C 43.0°F6.1°C 43% 4.0 mph NE6.4 kmh NE 9.0 mph14.5 kmh 30.06 in1017.9 mb 0.00 in0.0 mm 0.00 in0.0 mm 0.00 in0.0 mm
06:05 PM 65.9°F18.8°C 42.2°F5.7°C 42% 5.0 mph NE8.0 kmh NE 9.0 mph14.5 kmh 30.06 in1017.9 mb 0.00 in0.0 mm 0.00 in0.0 mm 0.00 in0.0 mm
06:10 PM 65.7°F18.7°C 42.0°F5.6°C 42% 5.0 mph NE8.0 kmh NE 10.0 mph16.1 kmh 30.06 in1017.9 mb 0.00 in0.0 mm 0.00 in0.0 mm 0.00 in0.0 mm
06:15 PM 65.4°F18.6°C 41.7°F5.4°C 42% 5.0 mph NE8.0 kmh NE 11.0 mph17.7 kmh 30.06 in1017.9 mb 0.00 in0.0 mm 0.00 in0.0 mm 0.00 in0.0 mm
06:20 PM 65.1°F18.4°C 42.0°F5.6°C 43% 2.0 mph NE3.2 kmh NE 7.0 mph11.3 kmh 30.06 in1017.9 mb 0.00 in0.0 mm 0.00 in0.0 mm 0.00 in0.0 mm
06:25 PM 64.9°F18.3°C 43.0°F6.1°C 45% 3.0 mph NE4.8 kmh NE 9.0 mph14.5 kmh 30.06 in1017.9 mb 0.00 in0.0 mm 0.00 in0.0 mm 0.00 in0.0 mm
06:30 PM 64.4°F18.0°C 43.7°F6.5°C 47% 2.0 mph NE3.2 kmh NE 6.0 mph9.7 kmh 30.06 in1017.9 mb 0.00 in0.0 mm 0.00 in0.0 mm 0.00 in0.0 mm
06:35 PM 64.0°F17.8°C 43.9°F6.6°C 48% 2.0 mph NE3.2 kmh NE 6.0 mph9.7 kmh 30.06 in1017.9 mb 0.00 in0.0 mm 0.00 in0.0 mm 0.00 in0.0 mm
06:40 PM 63.6°F17.6°C 44.1°F6.7°C 49% 1.0 mph NE1.6 kmh NE 4.0 mph6.4 kmh 30.06 in1017.9 mb 0.00 in0.0 mm 0.00 in0.0 mm 0.00 in0.0 mm
06:45 PM 63.0°F17.2°C 44.1°F6.7°C 50% 1.0 mph NNE1.6 kmh NNE 4.0 mph6.4 kmh 30.06 in1017.9 mb 0.00 in0.0 mm 0.00 in0.0 mm 0.00 in0.0 mm
06:50 PM 62.1°F16.7°C 44.3°F6.8°C 52% Calm Calm 3.0 mph4.8 kmh 30.06 in1017.9 mb 0.00 in0.0 mm 0.00 in0.0 mm 0.00 in0.0 mm
06:55 PM 61.5°F16.4°C 44.2°F6.8°C 53% Calm Calm 2.0 mph3.2 kmh 30.06 in1017.9 mb 0.00 in0.0 mm 0.00 in0.0 mm 0.00 in0.0 mm
07:00 PM 61.2°F16.2°C 43.9°F6.6°C 53% 1.0 mph NE1.6 kmh NE 5.0 mph8.0 kmh 30.06 in1017.9 mb 0.00 in0.0 mm 0.00 in0.0 mm 0.00 in0.0 mm
07:05 PM 60.9°F16.1°C 43.2°F6.2°C 52% 2.0 mph NNE3.2 kmh NNE 8.0 mph12.9 kmh 30.06 in1017.9 mb 0.00 in0.0 mm 0.00 in0.0 mm 0.00 in0.0 mm
07:10 PM 60.5°F15.8°C 42.8°F6.0°C 52% 1.0 mph NE1.6 kmh NE 6.0 mph9.7 kmh 30.07 in1018.3 mb 0.00 in0.0 mm 0.00 in0.0 mm 0.00 in0.0 mm
07:15 PM 59.9°F15.5°C 42.2°F5.7°C 52% 2.0 mph NE3.2 kmh NE 6.0 mph9.7 kmh 30.07 in1018.3 mb 0.00 in0.0 mm 0.00 in0.0 mm 0.00 in0.0 mm
07:20 PM 59.7°F15.4°C 42.5°F5.8°C 53% 3.0 mph NNE4.8 kmh NNE 8.0 mph12.9 kmh 30.07 in1018.3 mb 0.00 in0.0 mm 0.00 in0.0 mm 0.00 in0.0 mm
07:25 PM 59.5°F15.3°C 42.4°F5.8°C 53% 3.0 mph NE4.8 kmh NE 9.0 mph14.5 kmh 30.06 in1017.9 mb 0.00 in0.0 mm 0.00 in0.0 mm 0.00 in0.0 mm
07:30 PM 59.2°F15.1°C 42.1°F5.6°C 53% 4.0 mph NE6.4 kmh NE 8.0 mph12.9 kmh 30.06 in1017.9 mb 0.00 in0.0 mm 0.00 in0.0 mm 0.00 in0.0 mm
07:35 PM 59.0°F15.0°C 41.9°F5.5°C 53% 4.0 mph NE6.4 kmh NE 9.0 mph14.5 kmh 30.07 in1018.3 mb 0.00 in0.0 mm 0.00 in0.0 mm 0.00 in0.0 mm
07:40 PM 58.8°F14.9°C 41.7°F5.4°C 53% 4.0 mph NE6.4 kmh NE 7.0 mph11.3 kmh 30.07 in1018.3 mb 0.00 in0.0 mm 0.00 in0.0 mm 0.00 in0.0 mm
07:45 PM 58.6°F14.8°C 41.5°F5.3°C 53% 3.0 mph NE4.8 kmh NE 7.0 mph11.3 kmh 30.07 in1018.3 mb 0.00 in0.0 mm 0.00 in0.0 mm 0.00 in0.0 mm
07:50 PM 58.5°F14.7°C 41.4°F5.2°C 53% 3.0 mph NE4.8 kmh NE 7.0 mph11.3 kmh 30.07 in1018.3 mb 0.00 in0.0 mm 0.00 in0.0 mm 0.00 in0.0 mm
07:55 PM 58.3°F14.6°C 41.2°F5.1°C 53% 3.0 mph NE4.8 kmh NE 7.0 mph11.3 kmh 30.07 in1018.3 mb 0.00 in0.0 mm 0.00 in0.0 mm 0.00 in0.0 mm
08:00 PM 57.9°F14.4°C 41.4°F5.2°C 54% 2.0 mph NE3.2 kmh NE 6.0 mph9.7 kmh 30.07 in1018.3 mb 0.00 in0.0 mm 0.00 in0.0 mm 0.00 in0.0 mm
08:05 PM 57.2°F14.0°C 41.2°F5.1°C 55% 3.0 mph NE4.8 kmh NE 8.0 mph12.9 kmh 30.07 in1018.3 mb 0.00 in0.0 mm 0.00 in0.0 mm 0.00 in0.0 mm
08:10 PM 56.6°F13.7°C 41.1°F5.1°C 56% 2.0 mph NE3.2 kmh NE 5.0 mph8.0 kmh 30.07 in1018.3 mb 0.00 in0.0 mm 0.00 in0.0 mm 0.00 in0.0 mm
08:15 PM 56.2°F13.4°C 41.2°F5.1°C 57% 2.0 mph NE3.2 kmh NE 7.0 mph11.3 kmh 30.07 in1018.3 mb 0.00 in0.0 mm 0.00 in0.0 mm 0.00 in0.0 mm
08:20 PM 56.5°F13.6°C 41.5°F5.3°C 57% 2.0 mph NE3.2 kmh NE 5.0 mph8.0 kmh 30.07 in1018.3 mb 0.00 in0.0 mm 0.00 in0.0 mm 0.00 in0.0 mm
08:25 PM 56.6°F13.7°C 41.5°F5.3°C 57% 2.0 mph NE3.2 kmh NE 6.0 mph9.7 kmh 30.07 in1018.3 mb 0.00 in0.0 mm 0.00 in0.0 mm 0.00 in0.0 mm
08:30 PM 56.2°F13.4°C 41.2°F5.1°C 57% 2.0 mph NE3.2 kmh NE 6.0 mph9.7 kmh 30.07 in1018.3 mb 0.00 in0.0 mm 0.00 in0.0 mm 0.00 in0.0 mm
08:35 PM 55.9°F13.3°C 41.3°F5.2°C 58% 2.0 mph NE3.2 kmh NE 5.0 mph8.0 kmh 30.07 in1018.3 mb 0.00 in0.0 mm 0.00 in0.0 mm 0.00 in0.0 mm
08:40 PM 55.9°F13.3°C 41.3°F5.2°C 58% 1.0 mph NE1.6 kmh NE 5.0 mph8.0 kmh 30.07 in1018.3 mb 0.00 in0.0 mm 0.00 in0.0 mm 0.00 in0.0 mm
08:45 PM 55.6°F13.1°C 41.5°F5.3°C 59% 2.0 mph NE3.2 kmh NE 6.0 mph9.7 kmh 30.07 in1018.3 mb 0.00 in0.0 mm 0.00 in0.0 mm 0.00 in0.0 mm
08:50 PM 55.6°F13.1°C 41.5°F5.3°C 59% 2.0 mph ENE3.2 kmh ENE 6.0 mph9.7 kmh 30.07 in1018.3 mb 0.00 in0.0 mm 0.00 in0.0 mm 0.00 in0.0 mm
08:55 PM 55.7°F13.2°C 41.6°F5.3°C 59% 3.0 mph ENE4.8 kmh ENE 6.0 mph9.7 kmh 30.07 in1018.3 mb 0.00 in0.0 mm 0.00 in0.0 mm 0.00 in0.0 mm
09:00 PM 55.7°F13.2°C 41.6°F5.3°C 59% 2.0 mph ENE3.2 kmh ENE 5.0 mph8.0 kmh 30.07 in1018.3 mb 0.00 in0.0 mm 0.00 in0.0 mm 0.00 in0.0 mm
09:05 PM 55.5°F13.1°C 41.8°F5.4°C 60% 2.0 mph ENE3.2 kmh ENE 6.0 mph9.7 kmh 30.07 in1018.3 mb 0.00 in0.0 mm 0.00 in0.0 mm 0.00 in0.0 mm
09:10 PM 55.6°F13.1°C 41.5°F5.3°C 59% 5.0 mph ENE8.0 kmh ENE 12.0 mph19.3 kmh 30.07 in1018.3 mb 0.00 in0.0 mm 0.00 in0.0 mm 0.00 in0.0 mm
09:15 PM 55.8°F13.2°C 41.7°F5.4°C 59% 5.0 mph ENE8.0 kmh ENE 12.0 mph19.3 kmh 30.07 in1018.3 mb 0.00 in0.0 mm 0.00 in0.0 mm 0.00 in0.0 mm
09:20 PM 55.8°F13.2°C 41.7°F5.4°C 59% 5.0 mph ENE8.0 kmh ENE 11.0 mph17.7 kmh 30.07 in1018.3 mb 0.00 in0.0 mm 0.00 in0.0 mm 0.00 in0.0 mm
09:25 PM 55.6°F13.1°C 41.5°F5.3°C 59% 4.0 mph ENE6.4 kmh ENE 10.0 mph16.1 kmh 30.07 in1018.3 mb 0.00 in0.0 mm 0.00 in0.0 mm 0.00 in0.0 mm
09:30 PM 55.4°F13.0°C 41.7°F5.4°C 60% 5.0 mph ENE8.0 kmh ENE 10.0 mph16.1 kmh 30.07 in1018.3 mb 0.00 in0.0 mm 0.00 in0.0 mm 0.00 in0.0 mm
09:35 PM 55.3°F12.9°C 41.7°F5.4°C 60% 4.0 mph ENE6.4 kmh ENE 8.0 mph12.9 kmh 30.07 in1018.3 mb 0.00 in0.0 mm 0.00 in0.0 mm 0.00 in0.0 mm
09:40 PM 55.1°F12.8°C 41.5°F5.3°C 60% 4.0 mph ENE6.4 kmh ENE 9.0 mph14.5 kmh 30.07 in1018.3 mb 0.00 in0.0 mm 0.00 in0.0 mm 0.00 in0.0 mm
09:45 PM 54.9°F12.7°C 41.3°F5.2°C 60% 4.0 mph ENE6.4 kmh ENE 8.0 mph12.9 kmh 30.07 in1018.3 mb 0.00 in0.0 mm 0.00 in0.0 mm 0.00 in0.0 mm
09:50 PM 54.7°F12.6°C 41.5°F5.3°C 61% 4.0 mph ENE6.4 kmh ENE 9.0 mph14.5 kmh 30.07 in1018.3 mb 0.00 in0.0 mm 0.00 in0.0 mm 0.00 in0.0 mm
09:55 PM 54.5°F12.5°C 41.3°F5.2°C 61% 4.0 mph ENE6.4 kmh ENE 8.0 mph12.9 kmh 30.07 in1018.3 mb 0.00 in0.0 mm 0.00 in0.0 mm 0.00 in0.0 mm
10:00 PM 54.3°F12.4°C 41.1°F5.1°C 61% 4.0 mph ENE6.4 kmh ENE 9.0 mph14.5 kmh 30.07 in1018.3 mb 0.00 in0.0 mm 0.00 in0.0 mm 0.00 in0.0 mm
10:05 PM 54.3°F12.4°C 41.1°F5.1°C 61% 4.0 mph ENE6.4 kmh ENE 8.0 mph12.9 kmh 30.07 in1018.3 mb 0.00 in0.0 mm 0.00 in0.0 mm 0.00 in0.0 mm
10:10 PM 54.3°F12.4°C 40.7°F4.8°C 60% 4.0 mph ENE6.4 kmh ENE 9.0 mph14.5 kmh 30.07 in1018.3 mb 0.00 in0.0 mm 0.00 in0.0 mm 0.00 in0.0 mm
10:15 PM 54.2°F12.3°C 40.6°F4.8°C 60% 4.0 mph ENE6.4 kmh ENE 8.0 mph12.9 kmh 30.07 in1018.3 mb 0.00 in0.0 mm 0.00 in0.0 mm 0.00 in0.0 mm
10:20 PM 54.1°F12.3°C 40.5°F4.7°C 60% 5.0 mph ENE8.0 kmh ENE 9.0 mph14.5 kmh 30.07 in1018.3 mb 0.00 in0.0 mm 0.00 in0.0 mm 0.00 in0.0 mm
10:25 PM 54.0°F12.2°C 40.4°F4.7°C 60% 4.0 mph E6.4 kmh E 8.0 mph12.9 kmh 30.07 in1018.3 mb 0.00 in0.0 mm 0.00 in0.0 mm 0.00 in0.0 mm
10:30 PM 54.0°F12.2°C 40.4°F4.7°C 60% 5.0 mph E8.0 kmh E 8.0 mph12.9 kmh 30.07 in1018.3 mb 0.00 in0.0 mm 0.00 in0.0 mm 0.00 in0.0 mm
10:35 PM 54.0°F12.2°C 40.4°F4.7°C 60% 4.0 mph E6.4 kmh E 8.0 mph12.9 kmh 30.07 in1018.3 mb 0.00 in0.0 mm 0.00 in0.0 mm 0.00 in0.0 mm
10:40 PM 54.1°F12.3°C 40.1°F4.5°C 59% 4.0 mph E6.4 kmh E 8.0 mph12.9 kmh 30.07 in1018.3 mb 0.00 in0.0 mm 0.00 in0.0 mm 0.00 in0.0 mm
10:45 PM 54.0°F12.2°C 39.6°F4.2°C 58% 4.0 mph E6.4 kmh E 8.0 mph12.9 kmh 30.07 in1018.3 mb 0.00 in0.0 mm 0.00 in0.0 mm 0.00 in0.0 mm
10:50 PM 53.9°F12.2°C 39.0°F3.9°C 57% 3.0 mph E4.8 kmh E 9.0 mph14.5 kmh 30.07 in1018.3 mb 0.00 in0.0 mm 0.00 in0.0 mm 0.00 in0.0 mm
10:55 PM 53.8°F12.1°C 39.4°F4.1°C 58% 3.0 mph E4.8 kmh E 8.0 mph12.9 kmh 30.07 in1018.3 mb 0.00 in0.0 mm 0.00 in0.0 mm 0.00 in0.0 mm
11:00 PM 53.7°F12.1°C 38.8°F3.8°C 57% 4.0 mph E6.4 kmh E 9.0 mph14.5 kmh 30.07 in1018.3 mb 0.00 in0.0 mm 0.00 in0.0 mm 0.00 in0.0 mm
11:05 PM 53.6°F12.0°C 38.7°F3.7°C 57% 3.0 mph ESE4.8 kmh ESE 8.0 mph12.9 kmh 30.07 in1018.3 mb 0.00 in0.0 mm 0.00 in0.0 mm 0.00 in0.0 mm
11:10 PM 53.5°F11.9°C 38.6°F3.7°C 57% 2.0 mph E3.2 kmh E 7.0 mph11.3 kmh 30.07 in1018.3 mb 0.00 in0.0 mm 0.00 in0.0 mm 0.00 in0.0 mm
11:15 PM 53.5°F11.9°C 38.6°F3.7°C 57% 2.0 mph E3.2 kmh E 6.0 mph9.7 kmh 30.07 in1018.3 mb 0.00 in0.0 mm 0.00 in0.0 mm 0.00 in0.0 mm
11:20 PM 53.4°F11.9°C 38.1°F3.4°C 56% 2.0 mph E3.2 kmh E 8.0 mph12.9 kmh 30.07 in1018.3 mb 0.00 in0.0 mm 0.00 in0.0 mm 0.00 in0.0 mm
11:25 PM 53.2°F11.8°C 38.4°F3.6°C 57% 2.0 mph E3.2 kmh E 4.0 mph6.4 kmh 30.07 in1018.3 mb 0.00 in0.0 mm 0.00 in0.0 mm 0.00 in0.0 mm
11:30 PM 52.9°F11.6°C 38.1°F3.4°C 57% 1.0 mph E1.6 kmh E 4.0 mph6.4 kmh 30.07 in1018.3 mb 0.00 in0.0 mm 0.00 in0.0 mm 0.00 in0.0 mm
11:35 PM 52.8°F11.6°C 38.0°F3.3°C 57% 1.0 mph E1.6 kmh E 5.0 mph8.0 kmh 30.07 in1018.3 mb 0.00 in0.0 mm 0.00 in0.0 mm 0.00 in0.0 mm
11:40 PM 52.4°F11.3°C 38.1°F3.4°C 58% 2.0 mph ENE3.2 kmh ENE 4.0 mph6.4 kmh 30.07 in1018.3 mb 0.00 in0.0 mm 0.00 in0.0 mm 0.00 in0.0 mm
11:45 PM 52.2°F11.2°C 37.9°F3.3°C 58% 2.0 mph E3.2 kmh E 6.0 mph9.7 kmh 30.07 in1018.3 mb 0.00 in0.0 mm 0.00 in0.0 mm 0.00 in0.0 mm
11:50 PM 51.9°F11.1°C 38.0°F3.3°C 59% 2.0 mph E3.2 kmh E 5.0 mph8.0 kmh 30.07 in1018.3 mb 0.00 in0.0 mm 0.00 in0.0 mm 0.00 in0.0 mm
11:55 PM 51.7°F10.9°C 37.8°F3.2°C 59% 2.0 mph ENE3.2 kmh ENE 5.0 mph8.0 kmh 30.07 in1018.3 mb 0.00 in0.0 mm 0.00 in0.0 mm 0.00 in0.0 mm